»·PEaware :: UAL623 KBOI-KJAC

UAL623 :: KBOI-KJAC

FLIGHT INFORMATION

Flight Status: Arrived
Operator:
United Airlines
More flights by this operator :: More flights under this callsign
Pilot: Sergei F. (8485)
Aircraft: BOEING 737-600
(B736)
More flights by this aircraft type
Origin: KBOI Boise Air Terminal/Gowen
United States
Destination: KJAC Jackson Hole
United States
More flights between these airports :: More routes between these airports
Route: BOI3 FETHR IDA DNW
File this flight plan on PilotEdge
Remarks:
Altitude:
(Current/Filed)
37,000ft
Speed:
(Current/Filed)
461kts
Departed: 17-Nov-23 06:46 PM
Arrived: 17-Nov-23 07:31 PM
Distance/Time
Traveled:
238nm/0:45
Distance/Time
To Go:
Arrived

Flight Plot

Page will automatically refresh every two minutes.

Flight plan parsing failed; only flown route is shown


Map Options




Map Legend


Flown Route
Filed Route
Departure Airport
Arrival Airport
Navaid (VOR, NDB)
Fix

Horizontal Profiles

Position Reports

Time Latitude Longitude Heading Altitude Ground
Speed
17-Nov-23 18:08 43.567075 -116.220217 31 2880ft 0kts
17-Nov-23 18:09 43.567075 -116.220217 31 2880ft 0kts
17-Nov-23 18:10 43.567075 -116.220217 31 2880ft 0kts
17-Nov-23 18:11 43.567075 -116.220217 31 2889ft 0kts
17-Nov-23 18:12 43.567075 -116.220217 31 2889ft 0kts
17-Nov-23 18:13 43.567075 -116.220217 31 2889ft 0kts
17-Nov-23 18:14 43.567075 -116.220217 31 2889ft 0kts
17-Nov-23 18:15 43.567075 -116.220217 31 2889ft 0kts
17-Nov-23 18:16 43.567075 -116.220217 31 2889ft 0kts
17-Nov-23 18:17 43.567075 -116.220217 31 2889ft 0kts
17-Nov-23 18:18 43.567075 -116.220217 31 2889ft 0kts
17-Nov-23 18:19 43.567075 -116.220217 31 2889ft 0kts
17-Nov-23 18:21 43.567075 -116.220217 31 2889ft 0kts
17-Nov-23 18:22 43.567075 -116.220217 31 2889ft 0kts
17-Nov-23 18:23 43.567075 -116.220217 31 2889ft 0kts
17-Nov-23 18:24 43.567075 -116.220217 31 2889ft 0kts
17-Nov-23 18:25 43.567075 -116.220217 31 2880ft 0kts
17-Nov-23 18:26 43.567075 -116.220217 31 2880ft 0kts
17-Nov-23 18:27 43.567075 -116.220217 31 2880ft 0kts
17-Nov-23 18:28 43.567075 -116.220217 31 2880ft 0kts
17-Nov-23 18:29 43.567075 -116.220217 31 2880ft 0kts
17-Nov-23 18:30 43.567075 -116.220217 31 2880ft 0kts
17-Nov-23 18:31 43.567075 -116.220217 31 2880ft 0kts
17-Nov-23 18:32 43.567075 -116.220217 31 2880ft 0kts
17-Nov-23 18:33 43.566790 -116.220441 15 2880ft 1kts
17-Nov-23 18:34 43.566408 -116.220136 294 2880ft 1kts
17-Nov-23 18:35 43.566390 -116.220080 294 2880ft 0kts
17-Nov-23 18:36 43.566390 -116.220080 294 2880ft 0kts
17-Nov-23 18:37 43.566390 -116.220080 294 2880ft 0kts
17-Nov-23 18:38 43.566390 -116.220080 294 2880ft 0kts
17-Nov-23 18:39 43.566390 -116.220080 294 2880ft 0kts
17-Nov-23 18:40 43.566425 -116.220500 252 2880ft 3kts
17-Nov-23 18:41 43.566267 -116.221797 295 2879ft 6kts
17-Nov-23 18:42 43.567543 -116.225542 295 2880ft 13kts
17-Nov-23 18:43 43.569365 -116.230878 295 2879ft 16kts
17-Nov-23 18:44 43.571062 -116.235862 290 2880ft 8kts
17-Nov-23 18:45 43.570057 -116.236504 115 2881ft 0kts
17-Nov-23 18:45 43.567937 -116.230280 115 2878ft 105kts
17-Nov-23 18:47 43.548290 -116.166650 111 5245ft 194kts
17-Nov-23 18:48 43.525073 -116.082062 111 7294ft 267kts
17-Nov-23 18:49 43.496940 -115.981794 113 10775ft 292kts
17-Nov-23 18:50 43.484723 -115.870601 79 13944ft 330kts
17-Nov-23 18:50 43.502808 -115.761948 79 16283ft 355kts
17-Nov-23 18:51 43.523782 -115.625790 80 19431ft 374kts
17-Nov-23 18:53 43.549025 -115.456537 80 22745ft 397kts
17-Nov-23 18:54 43.571213 -115.304171 83 25340ft 412kts
17-Nov-23 18:55 43.572178 -115.145147 92 28117ft 413kts
17-Nov-23 18:56 43.570987 -114.987925 92 31127ft 405kts
17-Nov-23 18:56 43.570279 -114.862338 92 33741ft 383kts
17-Nov-23 18:57 43.569261 -114.716059 92 35247ft 391kts
17-Nov-23 18:58 43.568004 -114.562986 92 36235ft 407kts
17-Nov-23 18:59 43.566546 -114.405329 93 37152ft 411kts
17-Nov-23 19:01 43.564527 -114.221278 93 37203ft 421kts
17-Nov-23 19:01 43.562792 -114.082552 93 37198ft 447kts
17-Nov-23 19:02 43.560394 -113.906858 93 37185ft 465kts
17-Nov-23 19:03 43.557711 -113.728193 93 37198ft 464kts
17-Nov-23 19:04 43.554737 -113.550723 93 37213ft 463kts
17-Nov-23 19:05 43.551498 -113.374006 93 37232ft 462kts
17-Nov-23 19:06 43.547971 -113.196585 93 37239ft 462kts
17-Nov-23 19:07 43.544172 -113.019263 93 37250ft 464kts
17-Nov-23 19:08 43.540092 -112.841559 93 37256ft 465kts
17-Nov-23 19:09 43.535714 -112.663042 93 37262ft 466kts
17-Nov-23 19:10 43.531051 -112.484163 93 37243ft 467kts
17-Nov-23 19:11 43.526098 -112.305081 93 36411ft 474kts
17-Nov-23 19:12 43.520916 -112.126533 93 33841ft 455kts
17-Nov-23 19:13 43.538404 -111.954715 76 30206ft 462kts
17-Nov-23 19:14 43.566055 -111.787420 93 27436ft 434kts
17-Nov-23 19:15 43.549146 -111.631278 101 25226ft 398kts
17-Nov-23 19:16 43.529960 -111.481220 101 23137ft 392kts
17-Nov-23 19:17 43.511373 -111.335611 101 21118ft 380kts
17-Nov-23 19:18 43.493676 -111.195164 101 19209ft 358kts
17-Nov-23 19:19 43.478978 -111.074329 101 18550ft 288kts
17-Nov-23 19:20 43.465999 -110.965660 101 16029ft 283kts
17-Nov-23 19:21 43.453296 -110.860558 101 13768ft 274kts
17-Nov-23 19:22 43.477174 -110.778759 6 12560ft 228kts
17-Nov-23 19:23 43.507508 -110.827385 274 11801ft 189kts
17-Nov-23 19:24 43.478926 -110.874656 200 10816ft 181kts
17-Nov-23 19:25 43.442023 -110.852595 79 9441ft 182kts
17-Nov-23 19:26 43.482258 -110.809840 31 8578ft 185kts
17-Nov-23 19:27 43.520359 -110.779588 20 7996ft 146kts
17-Nov-23 19:28 43.558338 -110.761574 21 7163ft 140kts
17-Nov-23 19:29 43.594339 -110.744092 19 6549ft 132kts
17-Nov-23 19:30 43.609164 -110.736544 73 6438ft 7kts
17-Nov-23 19:31 43.606915 -110.736386 199 6431ft 10kts
17-Nov-23 19:32 43.605268 -110.737103 137 6430ft 1kts
17-Nov-23 19:33 43.605043 -110.736300 108 6432ft 0kts
17-Nov-23 19:34 43.605042 -110.736296 108 6432ft 0kts
17-Nov-23 19:35 43.605042 -110.736296 108 6432ft 0kts
17-Nov-23 19:36 43.605042 -110.736296 108 6432ft 0kts
17-Nov-23 19:37 43.605042 -110.736296 108 6432ft 0kts
17-Nov-23 19:38 43.605042 -110.736296 108 6432ft 0kts
17-Nov-23 19:39 43.605042 -110.736296 108 6432ft 0kts
17-Nov-23 19:40 43.605042 -110.736296 108 6432ft 0kts
17-Nov-23 19:41 43.605042 -110.736296 108 6432ft 0kts
17-Nov-23 19:42 43.605042 -110.736296 108 6432ft 0kts
17-Nov-23 19:43 43.605042 -110.736296 108 6432ft 0kts
17-Nov-23 19:44 43.605042 -110.736296 108 6432ft 0kts

Navigation Log

Ident Type
Flight plan parsing failed, navigation log unavailable